createdAt,value
2017-05-25T16:36:50.002Z,1024.35
2017-05-25T16:37:30.484Z,1024.44
2017-05-25T16:38:10.994Z,1024.43
2017-05-25T16:38:51.496Z,1024.35
2017-05-25T16:39:31.985Z,1024.42
2017-05-25T16:40:12.524Z,1024.3
2017-05-25T16:40:53.038Z,1024.33
2017-05-25T16:41:33.548Z,1024.25
2017-05-25T16:42:14.090Z,1024.28
2017-05-25T16:42:54.597Z,1024.28
2017-05-25T16:43:35.151Z,1024.29
2017-05-25T16:44:15.674Z,1024.25
2017-05-25T16:44:56.150Z,1024.34
2017-05-25T16:45:36.629Z,1024.38
2017-05-25T16:46:17.127Z,1023.9
2017-05-25T16:46:57.635Z,1024.27
2017-05-25T16:47:38.126Z,1024.31
2017-05-25T16:48:18.650Z,1024.29
2017-05-25T16:48:59.140Z,1024.31
2017-05-25T16:49:39.681Z,1024.3
2017-05-25T16:50:20.208Z,1023.56
2017-05-25T16:51:00.694Z,1023.43
2017-05-25T16:51:41.194Z,1023.7
2017-05-25T16:52:21.686Z,1023.88
2017-05-25T16:53:02.227Z,1023.74
2017-05-25T16:53:42.700Z,1023.75
2017-05-25T16:54:23.222Z,1023.58
2017-05-25T16:55:03.737Z,1024.27
2017-05-25T16:55:44.249Z,1023.95
2017-05-25T16:56:24.742Z,1024.3
2017-05-25T16:57:05.231Z,1024.24
2017-05-25T16:57:45.739Z,1024.15
2017-05-25T16:58:26.271Z,1024.17
2017-05-25T16:59:06.758Z,1024.16
2017-05-25T16:59:47.262Z,1023.84
2017-05-25T17:00:27.807Z,1024.3
2017-05-25T17:01:08.281Z,1024.25
2017-05-25T17:01:48.788Z,1023.76
2017-05-25T17:02:29.311Z,1024.21
2017-05-25T17:03:09.851Z,1023.65
2017-05-25T17:03:50.365Z,1024.14
2017-05-25T17:04:30.844Z,1024.1
2017-05-25T17:05:11.321Z,1024.15
2017-05-25T17:05:51.822Z,1023.93
2017-05-25T17:06:32.321Z,1024.16
2017-05-25T17:07:12.819Z,1024.14
2017-05-25T17:07:53.314Z,1023.86
2017-05-25T17:08:33.817Z,1024.08
2017-05-25T17:09:14.318Z,1024.01
2017-05-25T17:09:54.845Z,1024.07
2017-05-25T17:10:35.317Z,1024.05
2017-05-25T17:11:15.877Z,1024.08
2017-05-25T17:11:56.441Z,1024.04
2017-05-25T17:12:36.936Z,1024.07
2017-05-25T17:13:17.435Z,1024.12
2017-05-25T17:13:57.935Z,1023.93
2017-05-25T17:14:38.432Z,1024.07
2017-05-25T17:15:18.960Z,1024.14
2017-05-25T17:15:59.457Z,1023.58
2017-05-25T17:16:39.925Z,1024.04
2017-05-25T17:17:20.417Z,1024.07
2017-05-25T17:18:00.921Z,1024
2017-05-25T17:18:41.421Z,1023.51
2017-05-25T17:19:21.912Z,1023.62
2017-05-25T17:20:02.405Z,1024.1
2017-05-25T17:20:42.927Z,1023.63
2017-05-25T17:21:23.420Z,1023.88
2017-05-25T17:22:03.900Z,1023.56
2017-05-25T17:22:44.396Z,1023.56
2017-05-25T17:23:24.907Z,1023.6
2017-05-25T17:24:05.404Z,1023.54
2017-05-25T17:24:45.934Z,1023.62
2017-05-25T17:25:26.457Z,1023.65
2017-05-25T17:26:06.935Z,1023.64
2017-05-25T17:26:47.461Z,1023.49
2017-05-25T17:27:27.939Z,1023.6
2017-05-25T17:28:08.446Z,1023.45
2017-05-25T17:28:48.966Z,1023.51
2017-05-25T17:29:29.478Z,1023.41
2017-05-25T17:30:09.972Z,1023.46
2017-05-25T17:30:50.467Z,1023.47
2017-05-25T17:31:31.020Z,1023.52
2017-05-25T17:32:11.499Z,1023.39
2017-05-25T17:32:52.022Z,1023.38
2017-05-25T17:33:32.524Z,1023.38
2017-05-25T17:34:13.037Z,1023.4
2017-05-25T17:34:53.533Z,1023.49
2017-05-25T17:35:34.035Z,1023.44
2017-05-25T17:36:14.553Z,1023.42
2017-05-25T17:36:55.057Z,1023.34
2017-05-25T17:37:35.565Z,1023.25
2017-05-25T17:38:16.077Z,1023.28
2017-05-25T17:38:56.548Z,1023.39
2017-05-25T17:39:37.026Z,1023.46
2017-05-25T17:40:17.570Z,1023.31
2017-05-25T17:40:58.059Z,1023.39
2017-05-25T17:41:38.584Z,1023.3
2017-05-25T17:42:19.093Z,1023.4
2017-05-25T17:42:59.600Z,1023.34
2017-05-25T17:43:40.103Z,1023.23
2017-05-25T17:44:20.596Z,1023.25
2017-05-25T17:45:01.100Z,1023.2
2017-05-25T17:45:41.576Z,1023.23
2017-05-25T17:46:22.078Z,1023.2
2017-05-25T17:47:02.597Z,1023.24
2017-05-25T17:47:43.066Z,1023.22
2017-05-25T17:48:23.531Z,1023.16
2017-05-25T17:49:04.036Z,1023.23
2017-05-25T17:49:44.544Z,1023.22
2017-05-25T17:50:25.037Z,1023.15
2017-05-25T17:51:05.538Z,1023.2
2017-05-25T17:51:46.071Z,1023.16
2017-05-25T17:52:26.538Z,1023.19
2017-05-25T17:53:07.046Z,1023.25
2017-05-25T17:53:47.534Z,1023.19
2017-05-25T17:54:28.062Z,1023.21
2017-05-25T17:55:08.578Z,1023.18
2017-05-25T17:55:49.112Z,1023.15
2017-05-25T17:56:29.610Z,1023.14
2017-05-25T17:57:10.098Z,1023.16
2017-05-25T17:57:50.618Z,1023.19
2017-05-25T17:58:31.106Z,1023.09
2017-05-25T17:59:11.603Z,1023.16
2017-05-25T17:59:52.122Z,1023.12
2017-05-25T18:00:32.605Z,1023.13
2017-05-25T18:01:13.112Z,1023.13
2017-05-25T18:01:53.616Z,1023.12
2017-05-25T18:02:34.096Z,1023.09
2017-05-25T18:03:14.587Z,1023.16
2017-05-25T18:03:55.103Z,1023.12
2017-05-25T18:04:35.630Z,1023.08
2017-05-25T18:05:16.110Z,1023.11
2017-05-25T18:05:56.613Z,1023.11
2017-05-25T18:06:37.086Z,1023.11
2017-05-25T18:07:17.598Z,1023.1
2017-05-25T18:07:58.113Z,1023.08
2017-05-25T18:08:38.641Z,1023.09
2017-05-25T18:09:19.109Z,1023.16
2017-05-25T18:09:59.582Z,1023.04
2017-05-25T18:10:40.097Z,1023.11
2017-05-25T18:11:20.565Z,1023.13
2017-05-25T18:12:01.067Z,1023.09
2017-05-25T18:12:41.546Z,1023.17
2017-05-25T18:13:22.048Z,1023.14
2017-05-25T18:14:02.586Z,1023.17
2017-05-25T18:14:43.089Z,1023.2
2017-05-25T18:15:23.605Z,1023.19
2017-05-25T18:16:04.093Z,1023.23
2017-05-25T18:16:44.564Z,1023.25
2017-05-25T18:17:25.091Z,1023.26
2017-05-25T18:18:05.616Z,1023.19
2017-05-25T18:18:46.112Z,1023.21
2017-05-25T18:19:26.582Z,1023.17
2017-05-25T18:20:07.098Z,1023.18
2017-05-25T18:20:47.545Z,1023.14
2017-05-25T18:21:28.024Z,1023.18
2017-05-25T18:22:08.526Z,1023.09
2017-05-25T18:22:49.025Z,1023.13
2017-05-25T18:23:29.544Z,1023.08
2017-05-25T18:24:10.102Z,1023.11
2017-05-25T18:24:50.647Z,1023.06
2017-05-25T18:25:31.174Z,1023.04
2017-05-25T18:26:11.671Z,1023.04
2017-05-25T18:26:52.167Z,1023.02
2017-05-25T18:27:32.659Z,1023.03
2017-05-25T18:28:13.171Z,1023.02
2017-05-25T18:28:53.662Z,1023.01
2017-05-25T18:29:34.148Z,1023.08
2017-05-25T18:30:14.660Z,1022.96
2017-05-25T18:30:55.175Z,1022.98
2017-05-25T18:31:35.649Z,1022.99
2017-05-25T18:32:16.163Z,1022.98
2017-05-25T18:32:56.637Z,1022.96
2017-05-25T18:33:37.132Z,1023.02
2017-05-25T18:34:17.626Z,1022.99
2017-05-25T18:34:58.112Z,1022.98
2017-05-25T18:35:38.615Z,1022.96
2017-05-25T18:36:19.152Z,1022.97
2017-05-25T18:36:59.651Z,1022.99
2017-05-25T18:37:40.146Z,1023
2017-05-25T18:38:20.692Z,1023.02
2017-05-25T18:39:01.151Z,1023.1
2017-05-25T18:39:41.664Z,1023
2017-05-25T18:40:22.135Z,1023.04
2017-05-25T18:41:02.632Z,1023.09
2017-05-25T18:41:43.184Z,1023.06
2017-05-25T18:42:23.697Z,1023.07
2017-05-25T18:43:04.147Z,1023.03
2017-05-25T18:43:44.674Z,1022.99
2017-05-25T18:44:25.186Z,1022.98
2017-05-25T18:45:05.724Z,1022.99
2017-05-25T18:45:46.254Z,1022.99
2017-05-25T18:46:26.734Z,1022.96
2017-05-25T18:47:07.224Z,1022.95
2017-05-25T18:47:47.722Z,1022.97
2017-05-25T18:48:28.228Z,1023.02
2017-05-25T18:49:08.734Z,1023
2017-05-25T18:49:49.242Z,1023
2017-05-25T18:50:29.765Z,1023
2017-05-25T18:51:10.288Z,1023.02
2017-05-25T18:51:50.759Z,1023.02
2017-05-25T18:52:31.262Z,1023.04
2017-05-25T18:53:11.757Z,1023.03
2017-05-25T18:53:52.255Z,1023.04
2017-05-25T18:54:32.751Z,1022.99
2017-05-25T18:55:13.238Z,1023.01
2017-05-25T18:55:53.749Z,1023.05
2017-05-25T18:56:34.265Z,1023
2017-05-25T18:57:14.794Z,1023.09
2017-05-25T18:57:55.292Z,1023
2017-05-25T18:58:35.782Z,1023
2017-05-25T18:59:16.261Z,1023.03
2017-05-25T18:59:56.827Z,1023.01
2017-05-25T19:00:37.321Z,1023
2017-05-25T19:01:17.843Z,1023.04
2017-05-25T19:01:58.353Z,1023.05
2017-05-25T19:02:38.884Z,1023.08
2017-05-25T19:03:19.374Z,1022.97
2017-05-25T19:03:59.873Z,1022.98
2017-05-25T19:04:40.423Z,1022.95
2017-05-25T19:05:20.878Z,1023.06
2017-05-25T19:06:01.377Z,1023.02
2017-05-25T19:06:41.883Z,1023.02
2017-05-25T19:07:22.388Z,1023.02
2017-05-25T19:08:02.881Z,1022.98
2017-05-25T19:08:43.373Z,1023
2017-05-25T19:09:23.889Z,1023.02
2017-05-25T19:10:04.377Z,1022.99
2017-05-25T19:10:44.865Z,1022.91
2017-05-25T19:11:25.367Z,1022.95
2017-05-25T19:12:05.902Z,1022.95
2017-05-25T19:12:46.382Z,1022.99
2017-05-25T19:13:26.893Z,1023.03
2017-05-25T19:14:07.398Z,1022.98
2017-05-25T19:14:47.907Z,1023.01
2017-05-25T19:15:28.394Z,1023.04
2017-05-25T19:16:08.926Z,1022.99
2017-05-25T19:16:49.442Z,1023
2017-05-25T19:17:29.953Z,1022.96
2017-05-25T19:18:10.455Z,1022.97
2017-05-25T19:18:50.934Z,1022.93
2017-05-25T19:19:31.443Z,1022.94
2017-05-25T19:20:11.955Z,1022.92
2017-05-25T19:20:52.462Z,1022.91
2017-05-25T19:21:32.953Z,1022.92
2017-05-25T19:22:13.433Z,1022.95
2017-05-25T19:22:53.949Z,1022.95
2017-05-25T19:23:34.411Z,1022.95
2017-05-25T19:24:14.919Z,1022.88
2017-05-25T19:24:55.409Z,1022.87
2017-05-25T19:25:35.881Z,1022.86
2017-05-25T19:26:16.351Z,1022.9
2017-05-25T19:26:56.864Z,1022.83
2017-05-25T19:27:37.394Z,1022.96
2017-05-25T19:28:17.887Z,1022.93
2017-05-25T19:28:58.377Z,1022.95
2017-05-25T19:29:38.877Z,1022.91
2017-05-25T19:30:19.399Z,1023
2017-05-25T19:30:59.903Z,1022.97
2017-05-25T19:31:40.396Z,1022.98
2017-05-25T19:32:20.885Z,1022.93
2017-05-25T19:33:01.383Z,1022.94
2017-05-25T19:33:41.866Z,1022.96
2017-05-25T19:34:22.352Z,1022.98
2017-05-25T19:35:02.895Z,1022.96
2017-05-25T19:35:43.395Z,1023
2017-05-25T19:36:23.888Z,1022.98
2017-05-25T19:37:04.406Z,1022.96
2017-05-25T19:37:44.917Z,1022.95
2017-05-25T19:38:25.417Z,1022.99
2017-05-25T19:39:05.916Z,1022.98
2017-05-25T19:39:46.417Z,1022.98
2017-05-25T19:40:26.909Z,1022.99
2017-05-25T19:41:07.419Z,1022.98
2017-05-25T19:41:47.912Z,1023.03
2017-05-25T19:42:28.402Z,1022.99
2017-05-25T19:43:08.886Z,1023
2017-05-25T19:43:49.452Z,1023.03
2017-05-25T19:44:29.933Z,1022.97
2017-05-25T19:45:10.446Z,1022.93
2017-05-25T19:45:50.946Z,1022.95
2017-05-25T19:46:31.451Z,1022.96
2017-05-25T19:47:11.951Z,1023
2017-05-25T19:47:52.443Z,1022.99
2017-05-25T19:48:32.940Z,1022.97
2017-05-25T19:49:13.446Z,1023
2017-05-25T19:49:53.954Z,1022.98
2017-05-25T19:50:34.453Z,1023.03
2017-05-25T19:51:14.944Z,1023.01
2017-05-25T19:51:55.443Z,1023.01
2017-05-25T19:52:35.918Z,1023
2017-05-25T19:53:16.450Z,1023.06
2017-05-25T19:53:56.948Z,1022.99
2017-05-25T19:54:37.438Z,1023.09
2017-05-25T19:55:17.930Z,1023.04
2017-05-25T19:55:58.431Z,1023.13
2017-05-25T19:56:38.948Z,1023.04
2017-05-25T19:57:19.444Z,1023.01
2017-05-25T19:57:59.987Z,1023.04
2017-05-25T19:58:40.422Z,1023.04
2017-05-25T19:59:20.918Z,1023.08
2017-05-25T20:00:01.417Z,1023.07
2017-05-25T20:00:41.888Z,1023.05
2017-05-25T20:01:22.380Z,1023.03
2017-05-25T20:02:02.892Z,1023.16
2017-05-25T20:02:43.375Z,1023.1
2017-05-25T20:04:41.545Z,1023.16
2017-05-25T20:05:22.023Z,1023.15
2017-05-25T20:06:02.499Z,1023.13
2017-05-25T20:06:42.984Z,1023.15
2017-05-25T20:07:23.486Z,1023.15
2017-05-25T20:08:03.979Z,1023.14
2017-05-25T20:08:44.485Z,1023.12
2017-05-25T20:09:24.989Z,1023.11
2017-05-25T20:10:05.441Z,1023.09
2017-05-25T20:10:45.946Z,1023.15
2017-05-25T20:11:26.457Z,1023.17
2017-05-25T20:12:06.935Z,1023.22
2017-05-25T20:12:47.417Z,1023.17
2017-05-25T20:13:27.894Z,1023.12
2017-05-25T20:14:08.392Z,1023.16
2017-05-25T20:14:48.892Z,1023.18
2017-05-25T20:15:29.399Z,1023.14
2017-05-25T20:16:09.933Z,1023.15
2017-05-25T20:16:50.403Z,1023.21
2017-05-25T20:17:30.890Z,1023.17
2017-05-25T20:18:11.420Z,1023.19
2017-05-25T20:18:51.924Z,1023.16
2017-05-25T20:19:32.419Z,1023.17
2017-05-25T20:20:12.913Z,1023.14
2017-05-25T20:20:53.426Z,1023.19
2017-05-25T20:21:33.930Z,1023.29
2017-05-25T20:22:14.420Z,1023.14
2017-05-25T20:22:54.922Z,1023.12
2017-05-25T20:23:35.424Z,1023.13
2017-05-25T20:24:15.923Z,1023.12
2017-05-25T20:24:56.413Z,1023.15
2017-05-25T20:25:36.892Z,1023.09
2017-05-25T20:26:17.357Z,1023.2
2017-05-25T20:26:57.873Z,1023.14
2017-05-25T20:27:38.360Z,1023.16
2017-05-25T20:28:18.898Z,1023.13
2017-05-25T20:28:59.391Z,1023.17
2017-05-25T20:29:39.880Z,1023.19
2017-05-25T20:30:20.374Z,1023.2
2017-05-25T20:31:00.906Z,1023.18
2017-05-25T20:31:41.389Z,1023.22
2017-05-25T20:32:21.905Z,1023.17
2017-05-25T20:33:02.374Z,1023.22
2017-05-25T20:33:42.869Z,1023.17
2017-05-25T20:34:23.352Z,1023.14
2017-05-25T20:35:03.863Z,1023.24
2017-05-25T20:35:44.407Z,1023.12
2017-05-25T20:36:24.917Z,1023.2
2017-05-25T20:37:05.429Z,1023.17
2017-05-25T20:37:45.915Z,1023.19
2017-05-25T20:38:26.406Z,1023.18
2017-05-25T20:39:06.913Z,1023.19
2017-05-25T20:39:47.394Z,1023.23
2017-05-25T20:40:27.877Z,1023.18
2017-05-25T20:41:08.387Z,1023.2
2017-05-25T20:41:48.874Z,1023.2
2017-05-25T20:42:29.398Z,1023.24
2017-05-25T20:43:09.889Z,1023.21
2017-05-25T20:43:50.420Z,1023.24
2017-05-25T20:44:30.890Z,1023.25
2017-05-25T20:45:11.378Z,1023.19
2017-05-25T20:45:51.877Z,1023.31
2017-05-25T20:46:32.383Z,1023.24
2017-05-25T20:47:12.877Z,1023.27
2017-05-25T20:47:53.364Z,1023.31
2017-05-25T20:48:33.867Z,1023.28
2017-05-25T20:49:14.398Z,1023.29
2017-05-25T20:49:54.911Z,1023.2
2017-05-25T20:50:35.403Z,1023.26
2017-05-25T20:51:15.908Z,1023.29
2017-05-25T20:51:56.394Z,1023.24
2017-05-25T20:52:36.962Z,1023.26
2017-05-25T20:53:17.443Z,1023.27
2017-05-25T20:53:57.943Z,1023.31
2017-05-25T20:54:38.443Z,1023.28
2017-05-25T20:55:18.935Z,1023.26
2017-05-25T20:55:59.415Z,1023.23
2017-05-25T20:56:39.925Z,1023.29
2017-05-25T20:57:20.383Z,1023.29
2017-05-25T20:58:00.918Z,1023.29
2017-05-25T20:58:41.413Z,1023.27
2017-05-25T20:59:21.904Z,1023.33
2017-05-25T21:00:02.387Z,1023.34
2017-05-25T21:00:42.915Z,1023.34
2017-05-25T21:01:23.432Z,1023.32
2017-05-25T21:02:03.916Z,1023.4
2017-05-25T21:02:44.416Z,1023.38
2017-05-25T21:03:24.929Z,1023.32
2017-05-25T21:04:05.424Z,1023.35
2017-05-25T21:04:45.895Z,1023.37
2017-05-25T21:05:26.384Z,1023.35
2017-05-25T21:06:06.873Z,1023.34
2017-05-25T21:06:47.371Z,1023.38
2017-05-25T21:07:27.860Z,1023.37
2017-05-25T21:08:08.364Z,1023.36
2017-05-25T21:08:48.873Z,1023.43
2017-05-25T21:09:29.382Z,1023.53
2017-05-25T21:10:09.848Z,1023.35
2017-05-25T21:10:50.355Z,1023.36
2017-05-25T21:11:30.865Z,1023.34
2017-05-25T21:12:11.380Z,1023.34
2017-05-25T21:12:51.852Z,1023.35
2017-05-25T21:13:32.306Z,1023.42
2017-05-25T21:14:12.819Z,1023.35
2017-05-25T21:14:53.316Z,1023.36
2017-05-25T21:15:33.804Z,1023.38
2017-05-25T21:16:14.298Z,1023.38
2017-05-25T21:16:54.783Z,1023.46
2017-05-25T21:17:35.322Z,1023.42
2017-05-25T21:18:15.816Z,1023.33
2017-05-25T21:18:56.327Z,1023.36
2017-05-25T21:19:36.812Z,1023.37
2017-05-25T21:20:17.300Z,1023.39
2017-05-25T21:20:57.804Z,1023.31
2017-05-25T21:21:38.286Z,1023.32
2017-05-25T21:22:18.792Z,1023.31
2017-05-25T21:22:59.313Z,1023.32
2017-05-25T21:23:39.807Z,1023.3
2017-05-25T21:24:20.289Z,1023.31
2017-05-25T21:25:00.805Z,1023.3
2017-05-25T21:25:41.284Z,1023.37
2017-05-25T21:26:21.787Z,1023.28
2017-05-25T21:27:02.266Z,1023.25
2017-05-25T21:27:42.772Z,1023.31
2017-05-25T21:28:23.266Z,1023.28
2017-05-25T21:29:03.739Z,1023.28
2017-05-25T21:29:44.251Z,1023.26
2017-05-25T21:30:24.790Z,1023.29
2017-05-25T21:31:05.277Z,1023.25
2017-05-25T21:31:45.785Z,1023.21
2017-05-25T21:32:26.265Z,1023.24
2017-05-25T21:33:06.778Z,1023.3
2017-05-25T21:33:47.329Z,1023.23
2017-05-25T21:34:27.816Z,1023.21
2017-05-25T21:35:08.315Z,1023.27
2017-05-25T21:35:48.811Z,1023.32
2017-05-25T21:36:29.282Z,1023.28
2017-05-25T21:37:09.769Z,1023.22
2017-05-25T21:37:50.267Z,1023.24
2017-05-25T21:38:30.773Z,1023.2
2017-05-25T21:39:11.289Z,1023.18
2017-05-25T21:39:51.794Z,1023.25
2017-05-25T21:40:32.284Z,1023.2
2017-05-25T21:41:12.787Z,1023.18
2017-05-25T21:41:53.291Z,1023.22
2017-05-25T21:42:33.779Z,1023.18
2017-05-25T21:43:14.270Z,1023.16
2017-05-25T21:43:54.771Z,1023.19
2017-05-25T21:44:35.265Z,1023.19
2017-05-25T21:45:15.781Z,1023.18
2017-05-25T21:45:56.287Z,1023.14
2017-05-25T21:46:36.800Z,1023.15
2017-05-25T21:47:17.273Z,1023.14
2017-05-25T21:47:57.764Z,1023.16
2017-05-25T21:48:38.260Z,1023.16
2017-05-25T21:49:18.728Z,1023.13
2017-05-25T21:49:59.238Z,1023.16
2017-05-25T21:50:39.744Z,1023.18
2017-05-25T21:51:20.340Z,1023.14
2017-05-25T21:52:00.800Z,1023.2
2017-05-25T21:52:41.351Z,1023.18
2017-05-25T21:53:21.817Z,1023.2
2017-05-25T21:54:02.341Z,1023.19
2017-05-25T21:54:42.811Z,1023.2
2017-05-25T21:55:23.338Z,1023.19
2017-05-25T21:56:03.834Z,1023.17
2017-05-25T21:56:44.316Z,1023.2
2017-05-25T21:57:24.799Z,1023.22
2017-05-25T21:58:05.293Z,1023.19
2017-05-25T21:58:45.803Z,1023.24
2017-05-25T21:59:26.259Z,1023.26
2017-05-25T22:00:06.732Z,1023.24
2017-05-25T22:00:47.256Z,1023.2
2017-05-25T22:01:27.811Z,1023.26
2017-05-25T22:02:08.329Z,1023.23
2017-05-25T22:02:48.793Z,1023.22
2017-05-25T22:03:29.298Z,1023.21
2017-05-25T22:04:09.779Z,1023.22
2017-05-25T22:04:50.284Z,1023.25
2017-05-25T22:05:30.768Z,1023.22
2017-05-25T22:06:11.316Z,1023.17
2017-05-25T22:06:51.811Z,1023.19
2017-05-25T22:07:32.305Z,1023.19
2017-05-25T22:08:12.801Z,1023.17
2017-05-25T22:08:53.293Z,1023.24
2017-05-25T22:09:33.783Z,1023.24
2017-05-25T22:10:14.315Z,1023.25
2017-05-25T22:10:54.790Z,1023.3
2017-05-25T22:11:35.320Z,1023.28
2017-05-25T22:12:15.778Z,1023.28
2017-05-25T22:12:56.271Z,1023.27
2017-05-25T22:13:36.770Z,1023.28
2017-05-25T22:14:17.249Z,1023.3
2017-05-25T22:14:57.767Z,1023.3
2017-05-25T22:15:38.252Z,1023.28
2017-05-25T22:16:18.754Z,1023.26
2017-05-25T22:16:59.241Z,1023.31
2017-05-25T22:17:39.710Z,1023.29
2017-05-25T22:18:20.232Z,1023.31
2017-05-25T22:19:00.758Z,1023.3
2017-05-25T22:19:41.244Z,1023.29
2017-05-25T22:20:21.766Z,1023.27
2017-05-25T22:21:02.298Z,1023.24
2017-05-25T22:21:42.795Z,1023.38
2017-05-25T22:22:23.277Z,1023.35
2017-05-25T22:23:03.816Z,1023.38
2017-05-25T22:23:44.305Z,1023.35
2017-05-25T22:24:24.789Z,1023.32
2017-05-25T22:25:05.305Z,1023.33
2017-05-25T22:25:45.829Z,1023.3
2017-05-25T22:26:26.311Z,1023.33
2017-05-25T22:27:06.784Z,1023.3
2017-05-25T22:27:47.290Z,1023.29
2017-05-25T22:28:27.796Z,1023.31
2017-05-25T22:29:08.304Z,1023.29
2017-05-25T22:29:48.777Z,1023.34
2017-05-25T22:30:29.285Z,1023.3
2017-05-25T22:31:09.798Z,1023.31
2017-05-25T22:31:50.285Z,1023.3
2017-05-25T22:32:30.776Z,1023.35
2017-05-25T22:33:11.276Z,1023.34
2017-05-25T22:33:51.779Z,1023.3
2017-05-25T22:34:32.226Z,1023.32
2017-05-25T22:35:12.727Z,1023.37
2017-05-25T22:35:53.214Z,1023.33
2017-05-25T22:36:33.673Z,1023.38
2017-05-25T22:37:14.210Z,1023.32
2017-05-25T22:37:54.707Z,1023.36
2017-05-25T22:38:35.182Z,1023.38
2017-05-25T22:39:15.680Z,1023.33
2017-05-25T22:39:56.154Z,1023.36
2017-05-25T22:40:36.665Z,1023.35
2017-05-25T22:41:17.159Z,1023.34
2017-05-25T22:41:57.672Z,1023.35
2017-05-25T22:42:38.128Z,1023.34
2017-05-25T22:43:18.624Z,1023.37
2017-05-25T22:43:59.086Z,1023.36
2017-05-25T22:44:39.557Z,1023.31
2017-05-25T22:45:20.086Z,1023.35
2017-05-25T22:46:00.572Z,1023.38
2017-05-25T22:46:41.075Z,1023.36
2017-05-25T22:47:21.559Z,1023.43
2017-05-25T22:48:02.075Z,1023.38
2017-05-25T22:48:42.589Z,1023.43
2017-05-25T22:49:23.079Z,1023.44
2017-05-25T22:50:03.547Z,1023.49
2017-05-25T22:50:44.089Z,1023.46
2017-05-25T22:51:24.599Z,1023.49
2017-05-25T22:52:05.097Z,1023.48
2017-05-25T22:52:45.596Z,1023.46
2017-05-25T22:53:26.097Z,1023.42
2017-05-25T22:54:06.597Z,1023.44
2017-05-25T22:54:47.084Z,1023.47
2017-05-25T22:55:27.601Z,1023.45
2017-05-25T22:56:08.114Z,1023.45
2017-05-25T22:56:48.599Z,1023.45
2017-05-25T22:57:29.072Z,1023.5
2017-05-25T22:58:09.566Z,1023.5
2017-05-25T22:58:50.072Z,1023.46
2017-05-25T22:59:30.583Z,1023.48
2017-05-25T23:00:11.071Z,1023.51
2017-05-25T23:00:51.564Z,1023.49
2017-05-25T23:01:32.050Z,1023.45
2017-05-25T23:02:12.528Z,1023.44
2017-05-25T23:02:53.036Z,1023.47
2017-05-25T23:03:33.525Z,1023.47
2017-05-25T23:04:13.991Z,1023.51
2017-05-25T23:04:54.495Z,1023.48
2017-05-25T23:05:34.997Z,1023.4
2017-05-25T23:06:15.490Z,1023.47
2017-05-25T23:06:55.978Z,1023.44
2017-05-25T23:07:36.481Z,1023.45
2017-05-25T23:08:16.968Z,1023.47
2017-05-25T23:08:57.462Z,1023.5
2017-05-25T23:09:37.961Z,1023.47
2017-05-25T23:10:18.491Z,1023.49
2017-05-25T23:10:58.961Z,1023.44
2017-05-25T23:11:39.433Z,1023.43
2017-05-25T23:12:19.908Z,1023.47
2017-05-25T23:13:00.403Z,1023.38
2017-05-25T23:13:40.874Z,1023.41
2017-05-25T23:14:21.337Z,1023.4
2017-05-25T23:15:01.863Z,1023.37
2017-05-25T23:15:42.331Z,1023.39
2017-05-25T23:16:22.841Z,1023.4
2017-05-25T23:17:03.331Z,1023.36
2017-05-25T23:17:43.838Z,1023.37
2017-05-25T23:18:24.320Z,1023.45
2017-05-25T23:19:04.789Z,1023.46
2017-05-25T23:19:45.274Z,1023.43
2017-05-25T23:20:25.770Z,1023.45
2017-05-25T23:21:06.250Z,1023.43
2017-05-25T23:21:46.767Z,1023.45
2017-05-25T23:22:27.233Z,1023.43
2017-05-25T23:23:07.716Z,1023.43
2017-05-25T23:23:48.240Z,1023.44
2017-05-25T23:24:28.749Z,1023.43
2017-05-25T23:25:09.246Z,1023.46
2017-05-25T23:25:49.741Z,1023.4
2017-05-25T23:26:30.237Z,1023.43
2017-05-25T23:27:10.735Z,1023.4
2017-05-25T23:27:51.232Z,1023.44
2017-05-25T23:28:31.705Z,1023.46
2017-05-25T23:29:12.182Z,1023.44
2017-05-25T23:29:52.685Z,1023.41
2017-05-25T23:30:33.169Z,1023.47
2017-05-25T23:31:13.673Z,1023.44
2017-05-25T23:31:54.155Z,1023.44
2017-05-25T23:32:34.645Z,1023.39
2017-05-25T23:33:15.134Z,1023.41
2017-05-25T23:33:55.635Z,1023.36
2017-05-25T23:34:36.126Z,1023.38
2017-05-25T23:35:16.620Z,1023.33
2017-05-25T23:35:57.115Z,1023.33
2017-05-25T23:36:37.628Z,1023.33
2017-05-25T23:37:18.093Z,1023.33
2017-05-25T23:37:58.579Z,1023.31
2017-05-25T23:38:39.077Z,1023.29
2017-05-25T23:39:19.587Z,1023.29
2017-05-25T23:40:00.086Z,1023.3
2017-05-25T23:40:40.569Z,1023.29
2017-05-25T23:41:21.052Z,1023.31
2017-05-25T23:42:01.567Z,1023.3
2017-05-25T23:42:42.062Z,1023.35
2017-05-25T23:43:22.552Z,1023.34
2017-05-25T23:44:03.046Z,1023.32
2017-05-25T23:44:43.553Z,1023.36
2017-05-25T23:45:24.027Z,1023.44
2017-05-25T23:46:04.511Z,1023.43
2017-05-25T23:46:44.993Z,1023.4
2017-05-25T23:47:25.477Z,1023.4
2017-05-25T23:48:06.058Z,1023.38
2017-05-25T23:48:46.492Z,1023.35
2017-05-25T23:49:26.973Z,1023.37
2017-05-25T23:50:07.437Z,1023.4
2017-05-25T23:50:47.932Z,1023.36
2017-05-25T23:51:28.432Z,1023.34
2017-05-25T23:52:08.918Z,1023.34
2017-05-25T23:52:49.396Z,1023.32
2017-05-25T23:53:29.888Z,1023.32
2017-05-25T23:54:10.401Z,1023.28
2017-05-25T23:54:50.886Z,1023.25
2017-05-25T23:55:31.357Z,1023.24
2017-05-25T23:56:11.864Z,1023.25
2017-05-25T23:56:52.383Z,1023.3
2017-05-25T23:57:32.904Z,1023.27
2017-05-25T23:58:13.406Z,1023.24
2017-05-25T23:58:53.914Z,1023.28
2017-05-25T23:59:34.420Z,1023.23
